Time;durP1;ratioP1;P1;durP2;ratioP2;P2;SDS_P1;SDS_P2;PMS_P1;PMS_P2;Temp;Humidity;BMP_temperature;BMP_pressure;BME280_temperature;BME280_humidity;BME280_pressure;Samples;Min_cycle;Max_cycle;Signal;HPM_P1;HPM_P2
2022/02/19 00:01:27;;;;;;;;;;;5.40;99.90;;;;;;5096981;28;20284;-80
2022/02/19 00:03:52;;;;;;;;;;;5.40;99.90;;;;;;5097212;28;19987;-82
2022/02/19 00:06:18;;;;;;;;;;;5.30;99.90;;;;;;5095977;28;19920;-81
2022/02/19 00:08:43;;;;;;;;;;;5.30;99.90;;;;;;5097629;28;19908;-80
2022/02/19 00:11:09;;;;;;;;;;;5.20;99.90;;;;;;5117483;28;19965;-84
2022/02/19 00:13:35;;;;;;;;;;;5.20;99.90;;;;;;5117724;28;19908;-83
2022/02/19 00:16:05;;;;;;;;;;;5.20;99.90;;;;;;5104455;28;20328;-82
2022/02/19 00:18:31;;;;;;;;;;;5.20;99.90;;;;;;5099271;28;19922;-81
2022/02/19 00:20:57;;;;;;;;;;;5.20;99.90;;;;;;5098887;28;19907;-82
2022/02/19 00:23:26;;;;;;;;;;;5.30;99.90;;;;;;5117295;28;19915;-84
2022/02/19 00:25:51;;;;;;;;;;;5.30;99.90;;;;;;5096649;28;19912;-80
2022/02/19 00:28:17;;;;;;;;;;;5.30;99.90;;;;;;5096551;28;20214;-81
2022/02/19 00:30:43;;;;;;;;;;;5.40;99.90;;;;;;5096564;28;20218;-81
2022/02/19 00:33:08;;;;;;;;;;;5.40;99.90;;;;;;5095602;28;19935;-83
2022/02/19 00:35:34;;;;;;;;;;;5.50;99.90;;;;;;5114733;22;19931;-81
2022/02/19 00:37:59;;;;;;;;;;;5.50;99.90;;;;;;5105183;28;20002;-80
2022/02/19 00:40:25;;;;;;;;;;;5.50;99.90;;;;;;5116517;28;20371;-83
2022/02/19 00:42:50;;;;;;;;;;;5.50;99.90;;;;;;5116672;28;20260;-81
2022/02/19 00:45:16;;;;;;;;;;;5.50;99.90;;;;;;5132784;27;19907;-81
2022/02/19 00:47:42;;;;;;;;;;;5.50;99.90;;;;;;5117092;28;19919;-82
2022/02/19 00:50:08;;;;;;;;;;;5.50;99.90;;;;;;5132754;27;20206;-81
2022/02/19 00:52:34;;;;;;;;;;;5.50;99.90;;;;;;5116565;28;19957;-83
2022/02/19 00:54:59;;;;;;;;;;;5.50;99.90;;;;;;5119542;27;20306;-81
2022/02/19 00:57:25;;;;;;;;;;;5.40;99.90;;;;;;5118632;28;20258;-83
2022/02/19 00:59:51;;;;;;;;;;;5.40;99.90;;;;;;5137218;27;20006;-80
2022/02/19 01:02:16;;;;;;;;;;;5.40;99.90;;;;;;5137007;27;20232;-84
2022/02/19 01:04:42;;;;;;;;;;;5.40;99.90;;;;;;5137377;27;19911;-84
2022/02/19 01:07:07;;;;;;;;;;;5.30;99.90;;;;;;5136262;27;20043;-81
2022/02/19 01:09:33;;;;;;;;;;;5.40;99.90;;;;;;5135798;27;19911;-80
2022/02/19 01:11:59;;;;;;;;;;;5.30;99.90;;;;;;5137003;27;19907;-86
2022/02/19 01:14:24;;;;;;;;;;;5.30;99.90;;;;;;5108666;28;19912;-80
2022/02/19 01:16:50;;;;;;;;;;;5.30;99.90;;;;;;5099279;28;20010;-78
2022/02/19 01:19:15;;;;;;;;;;;5.30;99.90;;;;;;5105543;28;20011;-83
2022/02/19 01:21:41;;;;;;;;;;;5.30;99.90;;;;;;5116785;28;19920;-82
2022/02/19 01:24:07;;;;;;;;;;;5.30;99.90;;;;;;5110569;28;19915;-81
2022/02/19 01:26:35;;;;;;;;;;;5.30;99.90;;;;;;5113305;28;20153;-85
2022/02/19 01:29:01;;;;;;;;;;;5.40;99.90;;;;;;5117273;28;19908;-77
2022/02/19 01:31:27;;;;;;;;;;;5.30;99.90;;;;;;5111477;28;20214;-87
2022/02/19 01:33:53;;;;;;;;;;;5.30;99.90;;;;;;5134860;28;19908;-82
2022/02/19 01:36:20;;;;;;;;;;;5.30;99.90;;;;;;5134868;28;19920;-82
2022/02/19 01:38:45;;;;;;;;;;;5.30;99.90;;;;;;5137100;28;20241;-82
2022/02/19 01:41:11;;;;;;;;;;;5.30;99.90;;;;;;5102089;28;19915;-78
2022/02/19 01:43:36;;;;;;;;;;;5.30;99.90;;;;;;5105566;28;19918;-82
2022/02/19 01:46:02;;;;;;;;;;;5.30;99.90;;;;;;5116562;28;19918;-83
2022/02/19 01:48:27;;;;;;;;;;;5.30;99.90;;;;;;5118804;28;19911;-82
2022/02/19 01:50:53;;;;;;;;;;;5.30;99.90;;;;;;5127582;28;19908;-85
2022/02/19 01:53:19;;;;;;;;;;;5.30;99.90;;;;;;5136540;28;19920;-81
2022/02/19 01:55:46;;;;;;;;;;;5.30;99.90;;;;;;5126245;27;19915;-83
2022/02/19 01:58:12;;;;;;;;;;;5.30;99.90;;;;;;5106599;28;19937;-80
2022/02/19 02:00:37;;;;;;;;;;;5.30;99.90;;;;;;5111026;28;19907;-81
2022/02/19 02:03:03;;;;;;;;;;;5.40;99.90;;;;;;5116232;28;20232;-81
2022/02/19 02:05:31;;;;;;;;;;;5.30;99.90;;;;;;5099120;28;19914;-80
2022/02/19 02:07:57;;;;;;;;;;;5.30;99.90;;;;;;5117435;28;19915;-81
2022/02/19 02:10:23;;;;;;;;;;;5.40;99.90;;;;;;5104466;27;20192;-84
2022/02/19 02:12:48;;;;;;;;;;;5.30;99.90;;;;;;5124916;27;19912;-84
2022/02/19 02:15:27;;;;;;;;;;;5.30;99.90;;;;;;5124562;27;19908;-81
2022/02/19 02:17:53;;;;;;;;;;;5.30;99.90;;;;;;5139733;27;19960;-80
2022/02/19 02:20:19;;;;;;;;;;;5.30;99.90;;;;;;5134273;27;19911;-81
2022/02/19 02:22:45;;;;;;;;;;;5.30;99.90;;;;;;5136020;27;20248;-82
2022/02/19 02:25:11;;;;;;;;;;;5.30;99.90;;;;;;5118547;22;19911;-81
2022/02/19 02:27:37;;;;;;;;;;;5.30;99.90;;;;;;5097373;28;19920;-78
2022/02/19 02:30:03;;;;;;;;;;;5.30;99.90;;;;;;5089437;28;19916;-82
2022/02/19 02:32:28;;;;;;;;;;;5.30;99.90;;;;;;5060487;28;19913;-82
2022/02/19 02:34:54;;;;;;;;;;;5.30;99.90;;;;;;5080391;28;19985;-80
2022/02/19 02:37:20;;;;;;;;;;;5.30;99.90;;;;;;5073032;28;19916;-79
2022/02/19 02:39:47;;;;;;;;;;;5.30;99.90;;;;;;5102813;28;20316;-81
2022/02/19 02:42:13;;;;;;;;;;;5.30;99.90;;;;;;5081164;28;20215;-81
2022/02/19 02:44:39;;;;;;;;;;;5.30;99.90;;;;;;5098320;28;20015;-81
2022/02/19 02:47:04;;;;;;;;;;;5.20;99.90;;;;;;5094618;28;19912;-82
2022/02/19 02:49:31;;;;;;;;;;;5.20;99.90;;;;;;5090766;28;20012;-81
2022/02/19 02:51:56;;;;;;;;;;;5.20;99.90;;;;;;5060191;28;19912;-80
2022/02/19 02:54:22;;;;;;;;;;;5.30;99.90;;;;;;5070854;28;19934;-79
2022/02/19 02:56:47;;;;;;;;;;;5.30;99.90;;;;;;5098051;28;19935;-82
2022/02/19 02:59:13;;;;;;;;;;;5.30;99.90;;;;;;5095567;28;19908;-80
2022/02/19 03:01:38;;;;;;;;;;;5.30;99.90;;;;;;5061006;28;19923;-80
2022/02/19 03:04:04;;;;;;;;;;;5.20;99.90;;;;;;5083036;28;20304;-80
2022/02/19 03:06:29;;;;;;;;;;;5.20;99.90;;;;;;5096228;28;20502;-80
2022/02/19 03:08:56;;;;;;;;;;;5.20;99.90;;;;;;5093731;28;20271;-79
2022/02/19 03:11:21;;;;;;;;;;;5.20;99.90;;;;;;5086173;28;19963;-80
2022/02/19 03:13:47;;;;;;;;;;;5.20;99.90;;;;;;5082023;28;19916;-80
2022/02/19 03:16:13;;;;;;;;;;;5.30;99.90;;;;;;5086376;28;19999;-82
2022/02/19 03:18:38;;;;;;;;;;;5.30;99.90;;;;;;5072772;28;19919;-80
2022/02/19 03:21:04;;;;;;;;;;;5.30;99.90;;;;;;5078844;28;19978;-81
2022/02/19 03:23:29;;;;;;;;;;;5.30;99.90;;;;;;5076442;28;19919;-81
2022/02/19 03:25:55;;;;;;;;;;;5.30;99.90;;;;;;5083126;28;20002;-80
2022/02/19 03:28:20;;;;;;;;;;;5.30;99.90;;;;;;5076044;28;19921;-81
2022/02/19 03:30:46;;;;;;;;;;;5.30;99.90;;;;;;5092649;28;20015;-83
2022/02/19 03:33:11;;;;;;;;;;;5.20;99.90;;;;;;5087192;28;19916;-79
2022/02/19 03:35:37;;;;;;;;;;;5.20;99.90;;;;;;5079188;28;19912;-81
2022/02/19 03:38:03;;;;;;;;;;;5.20;99.90;;;;;;5092547;28;19912;-80
2022/02/19 03:40:28;;;;;;;;;;;5.20;99.90;;;;;;5088739;28;19913;-81
2022/02/19 03:42:54;;;;;;;;;;;5.20;99.90;;;;;;5092127;28;20360;-83
2022/02/19 03:45:19;;;;;;;;;;;5.20;99.90;;;;;;5096512;28;19912;-81
2022/02/19 03:47:45;;;;;;;;;;;5.20;99.90;;;;;;5090173;28;19919;-81
2022/02/19 03:50:14;;;;;;;;;;;5.10;99.90;;;;;;5089832;28;20240;-82
2022/02/19 03:52:40;;;;;;;;;;;5.10;99.90;;;;;;5069509;28;19912;-82
2022/02/19 03:55:06;;;;;;;;;;;5.10;99.90;;;;;;5090796;28;19912;-80
2022/02/19 03:57:31;;;;;;;;;;;5.00;99.90;;;;;;5089125;28;20023;-79
2022/02/19 03:59:57;;;;;;;;;;;5.00;99.90;;;;;;5066475;28;19916;-80
2022/02/19 04:02:22;;;;;;;;;;;5.10;99.90;;;;;;5087690;28;20367;-80
2022/02/19 04:04:48;;;;;;;;;;;5.10;99.90;;;;;;5085635;28;19952;-81
2022/02/19 04:07:13;;;;;;;;;;;5.10;99.90;;;;;;5090596;28;20314;-84
2022/02/19 04:09:39;;;;;;;;;;;5.10;99.90;;;;;;5069479;28;20192;-84
2022/02/19 04:12:05;;;;;;;;;;;5.10;99.90;;;;;;5091023;28;21385;-82
2022/02/19 04:14:30;;;;;;;;;;;5.10;99.90;;;;;;5077593;28;20253;-80
2022/02/19 04:16:56;;;;;;;;;;;5.10;99.90;;;;;;5089396;28;19913;-83
2022/02/19 04:19:21;;;;;;;;;;;5.10;99.90;;;;;;5093511;28;19920;-80
2022/02/19 04:21:47;;;;;;;;;;;5.10;99.90;;;;;;5082082;28;19920;-81
2022/02/19 04:24:12;;;;;;;;;;;5.10;99.90;;;;;;5089808;28;19916;-82
2022/02/19 04:26:38;;;;;;;;;;;5.10;99.90;;;;;;5093592;28;19923;-80
2022/02/19 04:29:04;;;;;;;;;;;5.10;99.90;;;;;;5085363;28;19920;-82
2022/02/19 04:31:29;;;;;;;;;;;5.10;99.90;;;;;;5088421;28;19912;-82
2022/02/19 04:33:55;;;;;;;;;;;5.10;99.90;;;;;;5090360;28;20234;-82
2022/02/19 04:36:20;;;;;;;;;;;5.10;99.90;;;;;;5069779;28;20227;-81
2022/02/19 04:38:47;;;;;;;;;;;5.10;99.90;;;;;;5091545;28;19912;-84
2022/02/19 04:41:12;;;;;;;;;;;5.20;99.90;;;;;;5088136;28;19916;-82
2022/02/19 04:43:38;;;;;;;;;;;5.10;99.90;;;;;;5085622;28;20030;-82
2022/02/19 04:46:03;;;;;;;;;;;5.20;99.90;;;;;;5070042;28;19936;-82
2022/02/19 04:48:29;;;;;;;;;;;5.20;99.90;;;;;;5096249;28;19919;-79
2022/02/19 04:50:54;;;;;;;;;;;5.20;99.90;;;;;;5091343;28;20003;-83
2022/02/19 04:53:20;;;;;;;;;;;5.20;99.90;;;;;;5094845;28;19912;-82
2022/02/19 04:55:46;;;;;;;;;;;5.20;99.90;;;;;;5077632;28;19912;-82
2022/02/19 04:58:11;;;;;;;;;;;5.20;99.90;;;;;;5061475;28;19920;-81
2022/02/19 05:00:37;;;;;;;;;;;5.20;99.90;;;;;;5067760;28;19923;-83
2022/02/19 05:03:02;;;;;;;;;;;5.20;99.90;;;;;;5079946;28;19916;-81
2022/02/19 05:05:28;;;;;;;;;;;5.20;99.90;;;;;;5075990;28;20354;-81
2022/02/19 05:07:53;;;;;;;;;;;5.20;99.90;;;;;;5073235;28;20019;-84
2022/02/19 05:10:19;;;;;;;;;;;5.20;99.90;;;;;;5063098;28;19919;-83
2022/02/19 05:12:45;;;;;;;;;;;5.20;99.90;;;;;;5095108;28;19994;-80
2022/02/19 05:15:12;;;;;;;;;;;5.20;99.90;;;;;;5088791;28;19916;-80
2022/02/19 05:17:51;;;;;;;;;;;5.20;99.90;;;;;;5074266;28;19989;-81
2022/02/19 05:20:20;;;;;;;;;;;5.20;99.90;;;;;;5073364;28;20027;-85
2022/02/19 05:22:46;;;;;;;;;;;5.10;99.90;;;;;;5092483;28;20041;-82
2022/02/19 05:25:11;;;;;;;;;;;5.10;99.90;;;;;;5084328;28;20014;-82
2022/02/19 05:27:37;;;;;;;;;;;5.10;99.90;;;;;;5074036;28;19927;-79
2022/02/19 05:30:03;;;;;;;;;;;5.10;99.90;;;;;;5082881;28;19909;-80
2022/02/19 05:32:28;;;;;;;;;;;5.10;99.90;;;;;;5089080;28;19918;-82
2022/02/19 05:34:54;;;;;;;;;;;5.10;99.90;;;;;;5088893;28;19912;-84
2022/02/19 05:37:19;;;;;;;;;;;5.10;99.90;;;;;;5083019;28;19909;-82
2022/02/19 05:39:45;;;;;;;;;;;5.10;99.90;;;;;;5082526;28;20279;-81
2022/02/19 05:42:10;;;;;;;;;;;5.10;99.90;;;;;;5088406;28;20011;-83
2022/02/19 05:44:36;;;;;;;;;;;5.00;99.90;;;;;;5089083;28;19912;-81
2022/02/19 05:47:01;;;;;;;;;;;5.00;99.90;;;;;;5088913;28;20014;-81
2022/02/19 05:49:27;;;;;;;;;;;5.00;99.90;;;;;;5063851;28;19916;-84
2022/02/19 05:51:52;;;;;;;;;;;5.00;99.90;;;;;;5099703;28;19908;-81
2022/02/19 05:54:18;;;;;;;;;;;5.00;99.90;;;;;;5087426;28;19916;-84
2022/02/19 05:56:44;;;;;;;;;;;5.00;99.90;;;;;;5064678;28;19913;-84
2022/02/19 05:59:09;;;;;;;;;;;5.00;99.90;;;;;;5098194;28;19912;-82
2022/02/19 06:01:35;;;;;;;;;;;5.00;99.90;;;;;;5098732;28;19954;-80
2022/02/19 06:04:00;;;;;;;;;;;5.00;99.90;;;;;;5091832;28;19912;-81
2022/02/19 06:06:26;;;;;;;;;;;5.00;99.90;;;;;;5089340;28;20412;-81
2022/02/19 06:08:51;;;;;;;;;;;5.10;99.90;;;;;;5086596;28;19917;-80
2022/02/19 06:11:17;;;;;;;;;;;5.00;99.90;;;;;;5085545;22;19932;-81
2022/02/19 06:13:43;;;;;;;;;;;5.00;99.90;;;;;;5080996;28;19994;-81
2022/02/19 06:16:08;;;;;;;;;;;5.00;99.90;;;;;;5097036;28;19913;-82
2022/02/19 06:18:34;;;;;;;;;;;5.00;99.90;;;;;;5069876;28;19960;-82
2022/02/19 06:20:59;;;;;;;;;;;5.00;99.90;;;;;;5060789;28;19962;-83
2022/02/19 06:23:25;;;;;;;;;;;5.10;99.90;;;;;;5087870;28;19912;-79
2022/02/19 06:25:50;;;;;;;;;;;5.00;99.90;;;;;;5080838;28;19912;-82
2022/02/19 06:28:16;;;;;;;;;;;5.10;99.90;;;;;;5072855;28;19916;-84
2022/02/19 06:30:41;;;;;;;;;;;5.00;99.90;;;;;;5060767;28;19917;-83
2022/02/19 06:33:07;;;;;;;;;;;5.00;99.90;;;;;;5079340;28;20319;-85
2022/02/19 06:35:32;;;;;;;;;;;5.00;99.90;;;;;;5061414;28;20314;-82
2022/02/19 06:37:58;;;;;;;;;;;5.00;99.90;;;;;;5073604;28;19912;-81
2022/02/19 06:40:23;;;;;;;;;;;4.90;99.90;;;;;;5070996;28;19947;-81
2022/02/19 06:42:49;;;;;;;;;;;4.90;99.90;;;;;;5082137;28;19966;-82
2022/02/19 06:45:14;;;;;;;;;;;5.00;99.90;;;;;;5077325;28;19909;-83
2022/02/19 06:47:40;;;;;;;;;;;4.90;99.90;;;;;;5078430;28;20192;-82
2022/02/19 06:50:07;;;;;;;;;;;5.00;99.90;;;;;;5062073;28;20266;-80
2022/02/19 06:52:32;;;;;;;;;;;5.00;99.90;;;;;;5062035;28;19916;-83
2022/02/19 06:54:58;;;;;;;;;;;5.00;99.90;;;;;;5060093;28;19908;-84
2022/02/19 06:57:24;;;;;;;;;;;5.00;99.90;;;;;;5078743;28;19973;-80
2022/02/19 06:59:49;;;;;;;;;;;5.10;99.90;;;;;;5095946;28;19915;-82
2022/02/19 07:02:16;;;;;;;;;;;5.00;99.90;;;;;;5098237;28;19912;-83
2022/02/19 07:04:41;;;;;;;;;;;5.00;99.90;;;;;;5079558;28;20372;-82
2022/02/19 07:07:07;;;;;;;;;;;5.10;99.90;;;;;;5098618;28;19959;-82
2022/02/19 07:09:32;;;;;;;;;;;5.00;99.90;;;;;;5098056;28;20060;-83
2022/02/19 07:11:58;;;;;;;;;;;5.00;99.90;;;;;;5075941;28;19928;-81
2022/02/19 07:14:24;;;;;;;;;;;5.00;99.90;;;;;;5079720;28;19912;-81
2022/02/19 07:16:49;;;;;;;;;;;5.00;99.90;;;;;;5098309;28;19999;-79
2022/02/19 07:19:15;;;;;;;;;;;5.00;99.90;;;;;;5097709;28;19954;-82
2022/02/19 07:21:41;;;;;;;;;;;5.00;99.90;;;;;;5066006;28;20266;-79
2022/02/19 07:24:06;;;;;;;;;;;5.00;99.90;;;;;;5064018;28;19963;-80
2022/02/19 07:26:32;;;;;;;;;;;5.00;99.90;;;;;;5061734;28;20134;-81
2022/02/19 07:28:58;;;;;;;;;;;5.00;99.90;;;;;;5059555;28;19908;-80
2022/02/19 07:31:24;;;;;;;;;;;5.10;99.90;;;;;;5077692;28;19912;-81
2022/02/19 07:33:49;;;;;;;;;;;5.10;99.90;;;;;;5059468;28;20358;-80
2022/02/19 07:36:15;;;;;;;;;;;5.10;99.90;;;;;;5077442;28;20352;-82
2022/02/19 07:38:40;;;;;;;;;;;5.10;99.90;;;;;;5077093;28;19912;-79
2022/02/19 07:41:06;;;;;;;;;;;5.10;99.90;;;;;;5059380;28;19913;-79
2022/02/19 07:43:32;;;;;;;;;;;5.10;99.90;;;;;;5077192;28;19995;-80
2022/02/19 07:46:01;;;;;;;;;;;5.10;99.90;;;;;;5076323;28;20308;-82
2022/02/19 07:48:26;;;;;;;;;;;5.20;99.90;;;;;;5059910;28;20433;-80
2022/02/19 07:59:04;;;;;;;;;;;5.30;99.90;;;;;;5076976;28;20004;-83
2022/02/19 08:01:30;;;;;;;;;;;5.30;99.90;;;;;;5075777;28;20011;-79
2022/02/19 08:03:55;;;;;;;;;;;5.40;99.90;;;;;;5075036;28;19920;-80
2022/02/19 08:06:21;;;;;;;;;;;5.30;99.90;;;;;;5066030;28;19916;-82
2022/02/19 08:08:46;;;;;;;;;;;5.30;99.90;;;;;;5042781;28;20008;-83
2022/02/19 08:11:13;;;;;;;;;;;5.80;99.90;;;;;;5042106;28;19928;-84
2022/02/19 08:13:39;;;;;;;;;;;5.90;99.90;;;;;;5058498;28;19915;-80
2022/02/19 08:16:05;;;;;;;;;;;5.90;99.90;;;;;;5049058;28;19916;-81
2022/02/19 08:18:31;;;;;;;;;;;6.30;99.90;;;;;;5043528;28;19920;-82
2022/02/19 08:20:57;;;;;;;;;;;6.40;99.90;;;;;;5072515;28;19916;-80
2022/02/19 08:23:23;;;;;;;;;;;6.20;99.90;;;;;;5040466;28;20330;-83
2022/02/19 08:25:49;;;;;;;;;;;6.00;99.90;;;;;;5040370;28;19909;-80
2022/02/19 08:28:14;;;;;;;;;;;5.80;99.90;;;;;;5046600;28;19913;-82
2022/02/19 08:30:41;;;;;;;;;;;5.80;99.90;;;;;;5065181;28;19920;-81
2022/02/19 08:33:08;;;;;;;;;;;5.80;99.90;;;;;;5079050;28;19923;-83
2022/02/19 08:35:34;;;;;;;;;;;5.70;99.90;;;;;;5078432;28;19914;-79
2022/02/19 08:38:00;;;;;;;;;;;5.80;99.90;;;;;;5089544;28;19920;-83
2022/02/19 08:40:26;;;;;;;;;;;5.80;99.90;;;;;;5080987;28;20353;-83
2022/02/19 08:42:52;;;;;;;;;;;5.90;99.90;;;;;;5059768;28;20007;-81
2022/02/19 08:45:17;;;;;;;;;;;6.00;99.90;;;;;;5096106;28;19912;-82
2022/02/19 08:47:44;;;;;;;;;;;6.30;99.90;;;;;;5063526;28;20193;-80
2022/02/19 08:50:14;;;;;;;;;;;6.80;99.90;;;;;;5058030;28;20003;-82
2022/02/19 08:52:40;;;;;;;;;;;7.20;99.90;;;;;;5073218;28;19964;-79
2022/02/19 08:55:07;;;;;;;;;;;7.60;99.90;;;;;;5046035;28;20204;-81
2022/02/19 08:57:32;;;;;;;;;;;8.00;99.90;;;;;;5063096;28;19948;-82
2022/02/19 08:59:58;;;;;;;;;;;7.60;99.90;;;;;;5064877;28;20417;-79
2022/02/19 09:02:23;;;;;;;;;;;7.10;99.90;;;;;;5047292;28;20011;-81
2022/02/19 09:04:49;;;;;;;;;;;7.20;99.90;;;;;;5059630;28;20330;-82
2022/02/19 09:07:17;;;;;;;;;;;7.70;99.90;;;;;;5059402;28;19919;-81
2022/02/19 09:09:47;;;;;;;;;;;8.30;99.90;;;;;;5075495;28;19916;-84
2022/02/19 09:12:13;;;;;;;;;;;7.80;99.90;;;;;;5068277;28;19925;-80
2022/02/19 09:14:38;;;;;;;;;;;7.40;99.90;;;;;;5055927;28;19913;-83
2022/02/19 09:17:04;;;;;;;;;;;7.00;99.90;;;;;;5054419;28;19940;-81
2022/02/19 09:19:29;;;;;;;;;;;6.80;99.90;;;;;;5063152;28;19917;-80
2022/02/19 09:21:55;;;;;;;;;;;6.70;99.90;;;;;;5057461;28;19916;-80
2022/02/19 09:24:20;;;;;;;;;;;7.00;99.90;;;;;;5043448;28;19955;-81
2022/02/19 09:26:46;;;;;;;;;;;7.00;99.90;;;;;;5054159;28;19917;-81
2022/02/19 09:29:12;;;;;;;;;;;7.20;99.90;;;;;;5070444;28;19977;-81
2022/02/19 09:31:38;;;;;;;;;;;7.20;99.90;;;;;;5042001;28;19912;-80
2022/02/19 09:34:04;;;;;;;;;;;7.20;99.90;;;;;;5063761;28;19912;-80
2022/02/19 09:36:29;;;;;;;;;;;7.30;99.90;;;;;;5050080;28;20296;-80
2022/02/19 09:38:55;;;;;;;;;;;7.60;99.90;;;;;;5054011;28;19916;-81
2022/02/19 09:41:21;;;;;;;;;;;7.30;99.90;;;;;;5060147;28;19921;-79
2022/02/19 09:43:46;;;;;;;;;;;7.00;99.90;;;;;;5059408;28;19921;-80
2022/02/19 09:46:13;;;;;;;;;;;6.90;99.90;;;;;;5052139;28;20185;-81
2022/02/19 09:48:42;;;;;;;;;;;6.90;99.90;;;;;;5072876;28;19952;-82
2022/02/19 09:51:10;;;;;;;;;;;7.00;99.90;;;;;;5050653;28;20011;-80
2022/02/19 09:53:36;;;;;;;;;;;7.40;99.90;;;;;;5048919;28;19958;-82
2022/02/19 09:56:02;;;;;;;;;;;8.00;99.90;;;;;;5065297;28;20000;-82
2022/02/19 09:58:28;;;;;;;;;;;8.60;99.90;;;;;;5054982;28;19995;-82
2022/02/19 10:00:54;;;;;;;;;;;8.70;99.90;;;;;;5061184;28;19922;-81
2022/02/19 10:03:22;;;;;;;;;;;8.40;99.90;;;;;;5066536;28;19924;-80
2022/02/19 10:05:51;;;;;;;;;;;8.40;99.90;;;;;;5065439;28;19959;-79
2022/02/19 10:08:17;;;;;;;;;;;8.30;99.90;;;;;;5073654;28;19962;-81
2022/02/19 10:10:47;;;;;;;;;;;8.00;99.90;;;;;;5064878;28;19929;-79
2022/02/19 10:13:45;;;;;;;;;;;7.50;99.90;;;;;;5044775;28;19916;-82
2022/02/19 10:16:11;;;;;;;;;;;7.20;99.90;;;;;;4986551;28;20289;-80
2022/02/19 10:18:39;;;;;;;;;;;7.10;99.90;;;;;;4974664;28;19945;-81
2022/02/19 10:21:15;;;;;;;;;;;7.10;99.90;;;;;;4981930;28;20252;-82
2022/02/19 10:23:42;;;;;;;;;;;7.00;99.90;;;;;;4983957;28;19914;-84
2022/02/19 10:26:08;;;;;;;;;;;7.30;99.90;;;;;;4984544;28;19913;-83
2022/02/19 10:28:34;;;;;;;;;;;7.80;99.90;;;;;;4979837;28;19914;-81
2022/02/19 10:31:12;;;;;;;;;;;8.20;99.90;;;;;;4987527;28;19914;-82
2022/02/19 10:33:41;;;;;;;;;;;8.40;99.90;;;;;;4999349;28;19917;-83
2022/02/19 10:36:17;;;;;;;;;;;8.50;99.90;;;;;;4988099;28;20308;-81
2022/02/19 10:38:58;;;;;;;;;;;8.30;99.90;;;;;;4971067;28;20311;-81
2022/02/19 10:41:34;;;;;;;;;;;7.90;99.90;;;;;;4988768;28;19918;-82
2022/02/19 10:44:18;;;;;;;;;;;7.40;99.90;;;;;;4988728;28;19922;-80
2022/02/19 10:46:43;;;;;;;;;;;7.40;99.90;;;;;;4971117;28;19970;-80
2022/02/19 10:49:10;;;;;;;;;;;7.50;99.90;;;;;;4978212;28;19960;-82
2022/02/19 10:51:36;;;;;;;;;;;7.80;99.90;;;;;;5023482;28;19917;-81
2022/02/19 10:54:02;;;;;;;;;;;7.80;99.90;;;;;;5057956;28;19916;-83
2022/02/19 10:56:28;;;;;;;;;;;7.50;99.90;;;;;;5073014;28;19948;-81
2022/02/19 10:59:00;;;;;;;;;;;7.50;99.90;;;;;;5058538;28;19963;-81
2022/02/19 11:01:26;;;;;;;;;;;7.90;99.90;;;;;;5073632;28;20330;-80
2022/02/19 11:03:52;;;;;;;;;;;8.20;99.90;;;;;;5069565;28;19916;-82
2022/02/19 11:06:18;;;;;;;;;;;8.40;99.90;;;;;;5059730;28;20296;-81
2022/02/19 11:08:44;;;;;;;;;;;8.30;99.90;;;;;;5077742;28;19912;-82
2022/02/19 11:11:10;;;;;;;;;;;8.20;99.90;;;;;;5055250;28;19925;-79
2022/02/19 11:13:36;;;;;;;;;;;8.10;99.90;;;;;;5056454;28;20300;-80
2022/02/19 11:16:04;;;;;;;;;;;8.00;99.90;;;;;;5057651;28;19934;-81
2022/02/19 11:18:34;;;;;;;;;;;8.00;99.90;;;;;;5056353;28;19909;-82
2022/02/19 11:21:00;;;;;;;;;;;8.10;99.90;;;;;;5055182;28;20331;-81
2022/02/19 11:23:26;;;;;;;;;;;8.40;99.90;;;;;;5057715;28;19913;-81
2022/02/19 11:25:52;;;;;;;;;;;8.70;99.90;;;;;;5053613;28;19921;-81
2022/02/19 11:28:18;;;;;;;;;;;8.90;99.90;;;;;;5051561;28;19917;-83
2022/02/19 11:30:48;;;;;;;;;;;9.10;99.90;;;;;;5051804;28;19912;-83
2022/02/19 11:33:14;;;;;;;;;;;9.20;99.90;;;;;;5043904;28;20266;-83
2022/02/19 11:35:41;;;;;;;;;;;9.10;99.90;;;;;;5048107;28;20200;-81
2022/02/19 11:38:25;;;;;;;;;;;9.00;99.90;;;;;;5044810;28;19939;-81
2022/02/19 11:40:51;;;;;;;;;;;9.10;99.90;;;;;;5048896;28;20276;-83
2022/02/19 11:43:37;;;;;;;;;;;9.10;99.90;;;;;;5051631;28;20205;-82
2022/02/19 11:46:15;;;;;;;;;;;8.90;99.90;;;;;;5052455;28;19917;-81
2022/02/19 11:48:47;;;;;;;;;;;8.60;99.90;;;;;;5065937;23;19925;-82
2022/02/19 11:51:19;;;;;;;;;;;8.60;99.90;;;;;;5068854;28;19920;-82
2022/02/19 11:53:46;;;;;;;;;;;8.50;99.90;;;;;;5046851;28;19956;-83
2022/02/19 11:56:25;;;;;;;;;;;8.30;99.90;;;;;;5049227;28;19960;-82
2022/02/19 11:58:51;;;;;;;;;;;8.50;99.90;;;;;;5046329;28;19939;-82
2022/02/19 12:01:17;;;;;;;;;;;8.70;99.90;;;;;;5049684;28;20322;-82
2022/02/19 12:03:42;;;;;;;;;;;8.70;99.90;;;;;;5046352;28;19913;-82
2022/02/19 12:06:16;;;;;;;;;;;8.50;99.90;;;;;;5047139;28;20316;-83
2022/02/19 12:08:53;;;;;;;;;;;8.40;99.90;;;;;;5043944;28;19919;-83
2022/02/19 12:11:19;;;;;;;;;;;8.20;99.90;;;;;;5047877;28;20051;-83
2022/02/19 12:13:48;;;;;;;;;;;8.30;99.90;;;;;;5047166;28;20007;-82
2022/02/19 12:16:30;;;;;;;;;;;8.40;99.90;;;;;;5047788;28;19916;-81
2022/02/19 12:18:58;;;;;;;;;;;8.40;99.90;;;;;;5049137;28;19921;-81
2022/02/19 12:21:37;;;;;;;;;;;8.50;99.90;;;;;;5046413;28;19920;-82
2022/02/19 12:24:09;;;;;;;;;;;8.50;99.90;;;;;;5047820;28;19917;-82
2022/02/19 12:26:53;;;;;;;;;;;8.60;99.90;;;;;;5048158;28;19940;-82
2022/02/19 12:29:29;;;;;;;;;;;8.70;99.90;;;;;;5046796;28;19968;-80
2022/02/19 12:32:12;;;;;;;;;;;8.60;99.90;;;;;;5049706;28;20358;-82
2022/02/19 12:34:38;;;;;;;;;;;8.60;99.90;;;;;;5045611;28;19920;-84
2022/02/19 12:37:05;;;;;;;;;;;8.70;99.90;;;;;;5043531;28;19935;-82
2022/02/19 12:39:34;;;;;;;;;;;8.90;99.90;;;;;;5046902;28;19913;-80
2022/02/19 12:41:59;;;;;;;;;;;9.10;99.90;;;;;;5044416;28;19917;-83
2022/02/19 12:44:25;;;;;;;;;;;9.20;99.90;;;;;;5046114;28;20374;-82
2022/02/19 12:46:52;;;;;;;;;;;9.10;99.90;;;;;;5048286;28;19913;-81
2022/02/19 12:49:19;;;;;;;;;;;8.90;99.90;;;;;;5090267;28;19920;-84
2022/02/19 12:51:52;;;;;;;;;;;8.70;99.90;;;;;;5069025;28;19912;-80
2022/02/19 12:54:37;;;;;;;;;;;8.50;99.90;;;;;;5085849;28;19923;-80
2022/02/19 12:57:06;;;;;;;;;;;8.50;99.90;;;;;;5071948;28;19922;-82
2022/02/19 12:59:33;;;;;;;;;;;8.40;99.90;;;;;;5072533;28;19982;-83
2022/02/19 13:02:02;;;;;;;;;;;8.40;99.90;;;;;;5084335;28;20031;-81
2022/02/19 13:04:35;;;;;;;;;;;8.30;99.90;;;;;;5070829;28;19916;-81
2022/02/19 13:07:02;;;;;;;;;;;8.30;99.90;;;;;;5073329;28;19916;-82
2022/02/19 13:09:28;;;;;;;;;;;8.30;99.90;;;;;;5070246;28;20293;-82
2022/02/19 13:11:56;;;;;;;;;;;8.30;99.90;;;;;;5088357;28;20019;-81
2022/02/19 13:14:22;;;;;;;;;;;8.30;99.90;;;;;;5071011;28;20208;-82
2022/02/19 13:17:02;;;;;;;;;;;8.30;99.90;;;;;;5073780;28;20254;-81
2022/02/19 13:19:29;;;;;;;;;;;8.30;99.90;;;;;;5074169;28;19915;-82
2022/02/19 13:22:03;;;;;;;;;;;8.20;99.90;;;;;;5094418;28;19920;-83
2022/02/19 13:24:30;;;;;;;;;;;8.20;99.90;;;;;;5076071;28;19952;-81
2022/02/19 13:27:14;;;;;;;;;;;8.20;99.90;;;;;;5076869;28;20326;-81
2022/02/19 13:29:40;;;;;;;;;;;8.20;99.90;;;;;;5076216;28;19920;-80
2022/02/19 13:32:06;;;;;;;;;;;8.20;99.90;;;;;;5077056;28;19938;-82
2022/02/19 13:34:33;;;;;;;;;;;8.10;99.90;;;;;;5090274;28;20303;-79
2022/02/19 13:36:59;;;;;;;;;;;8.20;99.90;;;;;;5074711;28;20274;-81
2022/02/19 13:39:33;;;;;;;;;;;8.20;99.90;;;;;;5076078;28;19958;-82
2022/02/19 13:41:59;;;;;;;;;;;8.10;99.90;;;;;;5075986;28;19994;-81
2022/02/19 13:44:28;;;;;;;;;;;8.10;99.90;;;;;;5077712;28;20002;-82
2022/02/19 13:46:54;;;;;;;;;;;8.10;99.90;;;;;;5090680;28;19973;-82
2022/02/19 13:49:20;;;;;;;;;;;8.00;99.90;;;;;;5094069;28;19935;-83
2022/02/19 13:51:46;;;;;;;;;;;8.00;99.90;;;;;;5094986;28;19969;-86
2022/02/19 13:54:19;;;;;;;;;;;7.90;99.90;;;;;;5076361;28;19916;-81
2022/02/19 13:56:45;;;;;;;;;;;7.90;99.90;;;;;;5092215;28;19916;-83
2022/02/19 13:59:18;;;;;;;;;;;7.80;99.90;;;;;;5076128;28;19999;-86
2022/02/19 14:01:45;;;;;;;;;;;7.80;99.90;;;;;;5073491;28;20310;-84
2022/02/19 14:04:10;;;;;;;;;;;7.80;99.90;;;;;;5069832;28;19963;-85
2022/02/19 14:06:37;;;;;;;;;;;7.80;99.90;;;;;;5073662;28;20346;-80
2022/02/19 14:09:32;;;;;;;;;;;7.80;99.90;;;;;;5091007;28;19912;-81
2022/02/19 14:11:58;;;;;;;;;;;7.80;99.90;;;;;;5095801;28;19912;-78
2022/02/19 14:14:33;;;;;;;;;;;7.70;99.90;;;;;;5074890;28;20311;-79
2022/02/19 14:17:12;;;;;;;;;;;7.70;99.90;;;;;;5075511;28;20034;-80
2022/02/19 14:19:38;;;;;;;;;;;7.70;99.90;;;;;;5095382;28;19990;-80
2022/02/19 14:22:11;;;;;;;;;;;7.70;99.90;;;;;;5076168;28;19931;-80
2022/02/19 14:24:55;;;;;;;;;;;7.70;99.90;;;;;;5079546;28;19916;-82
2022/02/19 14:27:21;;;;;;;;;;;7.70;99.90;;;;;;5097962;28;20352;-81
2022/02/19 14:29:46;;;;;;;;;;;7.60;99.90;;;;;;5097732;28;19916;-83
2022/02/19 14:32:12;;;;;;;;;;;7.60;99.90;;;;;;5097921;28;19916;-83
2022/02/19 14:34:38;;;;;;;;;;;7.60;99.90;;;;;;5094211;28;19950;-84
2022/02/19 14:37:03;;;;;;;;;;;7.50;99.90;;;;;;5079841;28;19912;-82
2022/02/19 14:39:29;;;;;;;;;;;7.50;99.90;;;;;;5095720;28;19919;-84